createdAt,value
2016-12-05T00:00:40.553Z,16.99
2016-12-05T00:01:40.487Z,16.98
2016-12-05T00:02:40.512Z,16.87
2016-12-05T00:03:40.451Z,16.88
2016-12-05T00:04:40.379Z,16.98
2016-12-05T00:05:40.407Z,16.95
2016-12-05T00:06:40.336Z,16.94
2016-12-05T00:07:40.272Z,16.99
2016-12-05T00:08:40.299Z,17.06
2016-12-05T00:09:40.325Z,17.09
2016-12-05T00:10:40.263Z,17.09
2016-12-05T00:11:40.292Z,17.13
2016-12-05T00:12:40.231Z,17.12
2016-12-05T00:13:40.258Z,17.1
2016-12-05T00:14:40.188Z,16.97
2016-12-05T00:15:40.217Z,16.9
2016-12-05T00:16:40.059Z,16.83
2016-12-05T00:17:39.845Z,16.98
2016-12-05T00:18:39.878Z,16.88
2016-12-05T00:19:39.916Z,16.94
2016-12-05T00:20:39.855Z,16.91
2016-12-05T00:21:39.887Z,16.95
2016-12-05T00:22:39.921Z,16.95
2016-12-05T00:23:39.961Z,16.9
2016-12-05T00:24:39.906Z,16.76
2016-12-05T00:25:39.946Z,16.74
2016-12-05T00:26:39.981Z,16.7
2016-12-05T00:27:40.008Z,16.73
2016-12-05T00:28:39.862Z,16.61
2016-12-05T00:29:39.806Z,16.67
2016-12-05T00:30:39.741Z,16.69
2016-12-05T00:31:39.672Z,16.77
2016-12-05T00:32:39.699Z,16.79
2016-12-05T00:33:39.640Z,16.76
2016-12-05T00:34:39.678Z,16.7
2016-12-05T00:35:39.710Z,16.77
2016-12-05T00:36:39.650Z,16.73
2016-12-05T00:37:39.677Z,16.8
2016-12-05T00:38:39.619Z,16.84
2016-12-05T00:39:39.643Z,16.83
2016-12-05T00:40:39.669Z,16.76
2016-12-05T00:41:39.610Z,16.83
2016-12-05T00:42:39.635Z,16.76
2016-12-05T00:43:39.568Z,16.73
2016-12-05T00:44:39.502Z,16.84
2016-12-05T00:45:39.434Z,16.98
2016-12-05T00:46:39.370Z,16.95
2016-12-05T00:47:39.216Z,16.91
2016-12-05T00:48:39.246Z,16.99
2016-12-05T00:49:39.265Z,16.99
2016-12-05T00:50:39.201Z,16.91
2016-12-05T00:51:39.048Z,16.83
2016-12-05T00:52:39.074Z,16.95
2016-12-05T00:53:39.106Z,16.9
2016-12-05T00:54:39.124Z,16.99
2016-12-05T00:55:39.058Z,16.98
2016-12-05T00:56:39.083Z,17.12
2016-12-05T00:57:39.019Z,17.16
2016-12-05T00:58:38.955Z,17.25
2016-12-05T00:59:38.896Z,17.28
2016-12-05T01:00:38.829Z,17.31
2016-12-05T01:01:38.765Z,17.22
2016-12-05T01:02:38.791Z,17.27
2016-12-05T01:03:38.633Z,17.19
2016-12-05T01:04:38.567Z,17.14
2016-12-05T01:05:38.592Z,17.24
2016-12-05T01:06:38.535Z,17.17
2016-12-05T01:07:38.561Z,17.12
2016-12-05T01:08:38.405Z,17.02
2016-12-05T01:09:38.431Z,17.09
2016-12-05T01:10:38.367Z,16.97
2016-12-05T01:11:38.394Z,17.02
2016-12-05T01:12:38.331Z,16.91
2016-12-05T01:13:38.358Z,16.99
2016-12-05T01:14:38.383Z,16.9
2016-12-05T01:15:38.132Z,16.91
2016-12-05T01:16:37.977Z,16.98
2016-12-05T01:17:38.004Z,17.02
2016-12-05T01:18:38.029Z,16.94
2016-12-05T01:19:38.055Z,17.09
2016-12-05T01:20:37.991Z,17.1
2016-12-05T01:21:38.018Z,17.06
2016-12-05T01:22:38.041Z,17.06
2016-12-05T01:23:38.067Z,17.12
2016-12-05T01:24:38.004Z,17.27
2016-12-05T01:25:38.031Z,17.09
2016-12-05T01:26:38.058Z,17.14
2016-12-05T01:27:38.087Z,17.07
2016-12-05T01:28:38.113Z,17.04
2016-12-05T01:29:38.140Z,17.02
2016-12-05T01:30:38.166Z,17.16
2016-12-05T01:31:38.191Z,17.02
2016-12-05T01:32:38.216Z,17.12
2016-12-05T01:33:38.245Z,17.01
2016-12-05T01:34:38.271Z,17.09
2016-12-05T01:35:38.207Z,17.09
2016-12-05T01:36:38.141Z,17.07
2016-12-05T01:37:38.167Z,17.01
2016-12-05T01:38:38.103Z,17.14
2016-12-05T01:39:38.128Z,17.25
2016-12-05T01:40:37.884Z,17.25
2016-12-05T01:41:37.904Z,17.28
2016-12-05T01:42:37.930Z,17.22
2016-12-05T01:43:37.771Z,17.14
2016-12-05T01:44:37.797Z,17.04
2016-12-05T01:45:37.732Z,17.01
2016-12-05T01:46:37.757Z,17.01
2016-12-05T01:47:37.693Z,16.94
2016-12-05T01:48:37.720Z,17.12
2016-12-05T01:49:37.746Z,17.1
2016-12-05T01:50:37.681Z,17.12
2016-12-05T01:51:37.618Z,16.92
2016-12-05T01:52:37.643Z,16.94
2016-12-05T01:53:37.668Z,16.95
2016-12-05T01:54:37.693Z,16.97
2016-12-05T01:55:37.719Z,16.94
2016-12-05T01:56:37.746Z,16.99
2016-12-05T01:57:37.771Z,16.92
2016-12-05T01:58:37.797Z,16.9
2016-12-05T01:59:37.733Z,16.91
2016-12-05T02:00:37.669Z,16.98
2016-12-05T02:01:37.700Z,16.91
2016-12-05T02:02:37.544Z,16.92
2016-12-05T02:03:37.507Z,16.95
2016-12-05T02:04:37.530Z,16.97
2016-12-05T02:05:37.556Z,16.97
2016-12-05T02:06:37.583Z,17.09
2016-12-05T02:07:37.605Z,17.06
2016-12-05T02:08:37.540Z,17.14
2016-12-05T02:09:37.480Z,17.09
2016-12-05T02:10:37.506Z,17.12
2016-12-05T02:11:37.531Z,17.14
2016-12-05T02:12:37.556Z,17.1
2016-12-05T02:13:37.581Z,17.01
2016-12-05T02:14:37.609Z,17.07
2016-12-05T02:15:37.634Z,17.04
2016-12-05T02:16:37.657Z,17.12
2016-12-05T02:17:37.687Z,16.94
2016-12-05T02:18:37.616Z,16.99
2016-12-05T02:19:37.550Z,16.97
2016-12-05T02:20:37.299Z,16.95
2016-12-05T02:21:37.327Z,17.1
2016-12-05T02:22:37.351Z,17.04
2016-12-05T02:23:37.379Z,17.06
2016-12-05T02:24:37.404Z,17.07
2016-12-05T02:25:37.432Z,16.98
2016-12-05T02:26:37.460Z,17.04
2016-12-05T02:27:37.389Z,16.94
2016-12-05T02:28:37.327Z,17.07
2016-12-05T02:29:37.353Z,16.97
2016-12-05T02:30:37.291Z,16.98
2016-12-05T02:31:37.316Z,16.99
2016-12-05T02:32:37.341Z,17.07
2016-12-05T02:33:37.273Z,17.04
2016-12-05T02:34:37.209Z,17.07
2016-12-05T02:35:37.237Z,17.06
2016-12-05T02:36:37.264Z,17.09
2016-12-05T02:37:37.289Z,17.02
2016-12-05T02:38:37.317Z,17.07
2016-12-05T02:39:37.344Z,17.1
2016-12-05T02:40:37.368Z,17.1
2016-12-05T02:41:37.395Z,17.13
2016-12-05T02:42:37.435Z,17.17
2016-12-05T02:43:37.350Z,17.19
2016-12-05T02:44:37.190Z,17.32
2016-12-05T02:45:37.035Z,17.27
2016-12-05T02:46:37.060Z,17.22
2016-12-05T02:47:37.085Z,17.19
2016-12-05T02:48:37.019Z,17.13
2016-12-05T02:49:37.044Z,17.14
2016-12-05T02:50:36.978Z,17.1
2016-12-05T02:51:36.915Z,17.2
2016-12-05T02:52:36.846Z,17.24
2016-12-05T02:53:36.784Z,17.2
2016-12-05T02:54:36.714Z,17.22
2016-12-05T02:55:36.741Z,17.13
2016-12-05T02:56:36.766Z,17.22
2016-12-05T02:57:36.796Z,17.14
2016-12-05T02:58:36.729Z,17.24
2016-12-05T02:59:36.664Z,17.24
2016-12-05T03:00:36.597Z,17.19
2016-12-05T03:01:36.625Z,17.13
2016-12-05T03:02:36.559Z,17.13
2016-12-05T03:03:36.495Z,17.09
2016-12-05T03:04:36.523Z,17.17
2016-12-05T03:05:36.550Z,17.22
2016-12-05T03:06:36.576Z,17.16
2016-12-05T03:07:36.509Z,17.2
2016-12-05T03:08:36.443Z,17.13
2016-12-05T03:09:36.377Z,17.14
2016-12-05T03:10:36.402Z,17.22
2016-12-05T03:11:36.336Z,17.22
2016-12-05T03:12:36.364Z,17.2
2016-12-05T03:13:36.389Z,17.3
2016-12-05T03:14:36.328Z,17.25
2016-12-05T03:15:36.355Z,17.2
2016-12-05T03:16:36.383Z,17.2
2016-12-05T03:17:36.410Z,17.22
2016-12-05T03:18:36.437Z,17.19
2016-12-05T03:19:36.465Z,17.27
2016-12-05T03:20:36.488Z,17.34
2016-12-05T03:21:36.515Z,17.41
2016-12-05T03:22:36.358Z,17.41
2016-12-05T03:23:36.385Z,17.38
2016-12-05T03:24:36.413Z,17.52
2016-12-05T03:25:36.442Z,17.54
2016-12-05T03:26:36.466Z,17.49
2016-12-05T03:27:36.407Z,17.43
2016-12-05T03:28:36.343Z,17.32
2016-12-05T03:29:36.370Z,17.35
2016-12-05T03:30:36.395Z,17.43
2016-12-05T03:31:36.330Z,17.45
2016-12-05T03:32:36.263Z,17.35
2016-12-05T03:33:36.289Z,17.25
2016-12-05T03:34:36.225Z,17.22
2016-12-05T03:35:36.250Z,17.2
2016-12-05T03:36:36.278Z,17.22
2016-12-05T03:37:36.220Z,17.31
2016-12-05T03:38:36.151Z,17.25
2016-12-05T03:39:36.085Z,17.25
2016-12-05T03:40:36.113Z,17.22
2016-12-05T03:41:36.141Z,17.14
2016-12-05T03:42:36.074Z,17.2
2016-12-05T03:43:36.008Z,17.3
2016-12-05T03:44:35.944Z,17.19
2016-12-05T03:45:35.968Z,17.16
2016-12-05T03:46:35.908Z,17.25
2016-12-05T03:47:35.935Z,17.27
2016-12-05T03:48:35.872Z,17.25
2016-12-05T03:49:35.712Z,17.24
2016-12-05T03:50:35.738Z,17.28
2016-12-05T03:51:35.582Z,17.31
2016-12-05T03:52:35.606Z,17.32
2016-12-05T03:53:35.546Z,17.32
2016-12-05T03:54:35.480Z,17.34
2016-12-05T03:55:35.507Z,17.31
2016-12-05T03:56:35.535Z,17.39
2016-12-05T03:57:35.562Z,17.3
2016-12-05T03:58:35.501Z,17.34
2016-12-05T03:59:35.528Z,17.38
2016-12-05T04:00:35.554Z,17.39
2016-12-05T04:01:35.488Z,17.41
2016-12-05T04:02:35.424Z,17.3
2016-12-05T04:03:35.357Z,17.34
2016-12-05T04:04:35.381Z,17.35
2016-12-05T04:05:35.227Z,17.35
2016-12-05T04:06:35.161Z,17.3
2016-12-05T04:07:35.189Z,17.34
2016-12-05T04:08:35.125Z,17.34
2016-12-05T04:09:35.152Z,17.28
2016-12-05T04:10:35.179Z,17.24
2016-12-05T04:11:35.018Z,17.22
2016-12-05T04:12:35.045Z,17.22
2016-12-05T04:13:35.074Z,17.22
2016-12-05T04:14:35.098Z,17.27
2016-12-05T04:15:35.036Z,17.28
2016-12-05T04:16:34.974Z,17.39
2016-12-05T04:17:35.002Z,17.43
2016-12-05T04:18:34.929Z,17.43
2016-12-05T04:19:34.867Z,17.39
2016-12-05T04:20:34.890Z,17.43
2016-12-05T04:21:34.732Z,17.38
2016-12-05T04:22:34.664Z,17.34
2016-12-05T04:23:34.506Z,17.34
2016-12-05T04:24:34.531Z,17.38
2016-12-05T04:25:34.554Z,17.43
2016-12-05T04:26:34.399Z,17.35
2016-12-05T04:27:34.421Z,17.37
2016-12-05T04:28:34.451Z,17.43
2016-12-05T04:29:34.385Z,17.34
2016-12-05T04:30:34.408Z,17.34
2016-12-05T04:31:34.344Z,17.38
2016-12-05T04:32:34.372Z,17.35
2016-12-05T04:33:34.310Z,17.35
2016-12-05T04:34:34.161Z,17.31
2016-12-05T04:35:34.189Z,17.27
2016-12-05T04:36:34.212Z,17.32
2016-12-05T04:37:34.148Z,17.27
2016-12-05T04:38:34.084Z,17.24
2016-12-05T04:39:34.110Z,17.25
2016-12-05T04:40:34.047Z,17.3
2016-12-05T04:41:34.073Z,17.32
2016-12-05T04:42:34.009Z,17.28
2016-12-05T04:43:34.036Z,17.35
2016-12-05T04:44:33.972Z,17.34
2016-12-05T04:45:33.813Z,17.34
2016-12-05T04:46:33.753Z,17.35
2016-12-05T04:47:33.689Z,17.38
2016-12-05T04:48:33.624Z,17.43
2016-12-05T04:49:33.650Z,17.41
2016-12-05T04:50:33.678Z,17.41
2016-12-05T04:51:33.708Z,17.49
2016-12-05T04:52:33.733Z,17.49
2016-12-05T04:53:33.575Z,17.37
2016-12-05T04:54:33.603Z,17.38
2016-12-05T04:55:33.443Z,17.22
2016-12-05T04:56:33.379Z,17.19
2016-12-05T04:57:33.407Z,17.13
2016-12-05T04:58:33.432Z,17.13
2016-12-05T04:59:33.364Z,17.14
2016-12-05T05:00:33.297Z,16.99
2016-12-05T05:01:33.325Z,16.98
2016-12-05T05:02:33.261Z,17.1
2016-12-05T05:03:33.195Z,17.06
2016-12-05T05:04:33.128Z,16.88
2016-12-05T05:05:33.153Z,16.91
2016-12-05T05:06:33.088Z,16.82
2016-12-05T05:07:33.026Z,16.76
2016-12-05T05:08:32.960Z,16.73
2016-12-05T05:09:32.985Z,16.67
2016-12-05T05:10:32.919Z,16.69
2016-12-05T05:11:32.853Z,16.69
2016-12-05T05:12:32.878Z,16.73
2016-12-05T05:13:32.811Z,16.73
2016-12-05T05:14:32.839Z,16.69
2016-12-05T05:15:32.864Z,16.72
2016-12-05T05:16:32.892Z,16.76
2016-12-05T05:17:32.734Z,16.74
2016-12-05T05:18:32.762Z,16.83
2016-12-05T05:19:32.694Z,16.8
2016-12-05T05:20:32.719Z,16.73
2016-12-05T05:21:32.468Z,16.8
2016-12-05T05:22:32.493Z,16.76
2016-12-05T05:23:32.429Z,16.76
2016-12-05T05:24:32.456Z,16.77
2016-12-05T05:25:32.477Z,16.77
2016-12-05T05:26:32.413Z,16.84
2016-12-05T05:27:32.441Z,16.73
2016-12-05T05:28:32.468Z,16.79
2016-12-05T05:29:32.402Z,16.8
2016-12-05T05:30:32.336Z,16.74
2016-12-05T05:31:32.359Z,16.73
2016-12-05T05:32:32.384Z,16.74
2016-12-05T05:33:32.318Z,16.67
2016-12-05T05:34:32.343Z,16.7
2016-12-05T05:35:32.286Z,16.61
2016-12-05T05:36:32.312Z,16.61
2016-12-05T05:37:32.154Z,16.64
2016-12-05T05:38:32.177Z,16.67
2016-12-05T05:39:32.203Z,16.55
2016-12-05T05:40:32.136Z,16.59
2016-12-05T05:41:32.159Z,16.59
2016-12-05T05:42:32.092Z,16.47
2016-12-05T05:43:32.118Z,16.34
2016-12-05T05:44:32.141Z,16.36
2016-12-05T05:45:32.167Z,16.39
2016-12-05T05:46:32.100Z,16.28
2016-12-05T05:47:32.036Z,16.24
2016-12-05T05:48:31.972Z,16.29
2016-12-05T05:49:31.909Z,16.28
2016-12-05T05:50:31.841Z,16.28
2016-12-05T05:51:31.772Z,16.21
2016-12-05T05:52:31.708Z,16.18
2016-12-05T05:53:31.639Z,16.22
2016-12-05T05:54:31.582Z,16.17
2016-12-05T05:55:31.605Z,16.08
2016-12-05T05:56:31.539Z,16.16
2016-12-05T05:57:31.472Z,16.09
2016-12-05T05:58:31.407Z,16.13
2016-12-05T05:59:31.341Z,16.06
2016-12-05T06:00:31.089Z,16.02
2016-12-05T06:01:31.028Z,16.14
2016-12-05T06:02:30.873Z,16.13
2016-12-05T06:03:30.804Z,16.21
2016-12-05T06:04:30.742Z,16.09
2016-12-05T06:05:30.767Z,16.08
2016-12-05T06:06:30.790Z,16.16
2016-12-05T06:07:30.725Z,16.17
2016-12-05T06:08:30.572Z,16.17
2016-12-05T06:09:30.507Z,16.17
2016-12-05T06:10:30.533Z,16.16
2016-12-05T06:11:30.464Z,16.13
2016-12-05T06:12:30.405Z,16.08
2016-12-05T06:13:30.338Z,16.22
2016-12-05T06:14:30.270Z,16.17
2016-12-05T06:15:30.204Z,16.22
2016-12-05T06:16:30.229Z,16.21
2016-12-05T06:17:30.165Z,16.1
2016-12-05T06:18:30.197Z,16.25
2016-12-05T06:19:30.220Z,16.18
2016-12-05T06:20:30.151Z,16.18
2016-12-05T06:21:30.087Z,16.21
2016-12-05T06:22:30.020Z,16.21
2016-12-05T06:23:30.045Z,16.18
2016-12-05T06:24:29.979Z,16.22
2016-12-05T06:25:30.004Z,16.21
2016-12-05T06:26:29.936Z,16.17
2016-12-05T06:27:29.778Z,16.16
2016-12-05T06:28:29.711Z,16.16
2016-12-05T06:29:29.641Z,16.21
2016-12-05T06:30:29.577Z,16.25
2016-12-05T06:31:29.415Z,16.25
2016-12-05T06:32:29.254Z,16.28
2016-12-05T06:33:29.189Z,16.33
2016-12-05T06:34:29.124Z,16.36
2016-12-05T06:35:28.965Z,16.39
2016-12-05T06:36:28.990Z,16.46
2016-12-05T06:37:28.926Z,16.4
2016-12-05T06:38:28.948Z,16.39
2016-12-05T06:39:28.881Z,16.37
2016-12-05T06:40:28.819Z,16.33
2016-12-05T06:41:28.751Z,16.44
2016-12-05T06:42:28.776Z,16.36
2016-12-05T06:43:28.709Z,16.47
2016-12-05T06:44:28.731Z,16.44
2016-12-05T06:45:28.669Z,16.44
2016-12-05T06:46:28.696Z,16.44
2016-12-05T06:47:28.719Z,16.44
2016-12-05T06:48:28.653Z,16.42
2016-12-05T06:49:28.495Z,16.43
2016-12-05T06:50:28.523Z,16.46
2016-12-05T06:51:28.456Z,16.42
2016-12-05T06:52:28.297Z,16.43
2016-12-05T06:53:28.231Z,16.4
2016-12-05T06:54:28.256Z,16.39
2016-12-05T06:55:28.195Z,16.37
2016-12-05T06:56:28.132Z,16.42
2016-12-05T06:57:28.066Z,16.47
2016-12-05T06:58:28.089Z,16.47
2016-12-05T06:59:28.019Z,16.61
2016-12-05T07:00:28.044Z,16.52
2016-12-05T07:01:27.979Z,16.57
2016-12-05T07:02:28.003Z,16.51
2016-12-05T07:03:28.026Z,16.51
2016-12-05T07:04:27.866Z,16.59
2016-12-05T07:05:27.706Z,16.67
2016-12-05T07:06:27.548Z,16.69
2016-12-05T07:07:27.485Z,16.64
2016-12-05T07:08:27.510Z,16.67
2016-12-05T07:09:27.350Z,16.67
2016-12-05T07:10:27.286Z,16.72
2016-12-05T07:11:27.309Z,16.62
2016-12-05T07:12:27.243Z,16.67
2016-12-05T07:13:27.087Z,16.69
2016-12-05T07:14:27.114Z,16.64
2016-12-05T07:15:27.042Z,16.62
2016-12-05T07:16:27.065Z,16.64
2016-12-05T07:17:26.905Z,16.72
2016-12-05T07:18:26.838Z,16.74
2016-12-05T07:19:26.772Z,16.82
2016-12-05T07:20:26.797Z,16.77
2016-12-05T07:21:26.729Z,16.79
2016-12-05T07:22:26.756Z,16.82
2016-12-05T07:23:26.692Z,16.8
2016-12-05T07:24:26.719Z,16.69
2016-12-05T07:25:26.748Z,16.7
2016-12-05T07:26:26.772Z,16.74
2016-12-05T07:27:26.708Z,16.73
2016-12-05T07:28:26.639Z,16.69
2016-12-05T07:29:26.571Z,16.7
2016-12-05T07:30:26.594Z,16.7
2016-12-05T07:31:26.530Z,16.69
2016-12-05T07:32:26.560Z,16.67
2016-12-05T07:33:26.582Z,16.7
2016-12-05T07:34:26.530Z,16.79
2016-12-05T07:35:26.553Z,16.77
2016-12-05T07:36:26.576Z,16.77
2016-12-05T07:37:26.512Z,16.73
2016-12-05T07:38:26.445Z,16.73
2016-12-05T07:39:26.379Z,16.77
2016-12-05T07:40:26.313Z,16.79
2016-12-05T07:41:26.249Z,16.74
2016-12-05T07:42:26.183Z,16.79
2016-12-05T07:43:26.206Z,16.77
2016-12-05T07:44:26.142Z,16.74
2016-12-05T07:45:26.080Z,16.77
2016-12-05T07:46:26.108Z,16.73
2016-12-05T07:47:26.043Z,16.8
2016-12-05T07:48:26.064Z,16.73
2016-12-05T07:49:26.001Z,16.76
2016-12-05T07:50:26.024Z,16.8
2016-12-05T07:51:25.962Z,16.8
2016-12-05T07:52:25.806Z,16.79
2016-12-05T07:53:25.647Z,16.79
2016-12-05T07:54:25.491Z,16.83
2016-12-05T07:55:25.519Z,16.76
2016-12-05T07:56:25.452Z,16.84
2016-12-05T07:57:25.386Z,16.8
2016-12-05T07:58:25.322Z,16.84
2016-12-05T07:59:25.256Z,16.8
2016-12-05T08:00:25.190Z,16.76
2016-12-05T08:01:25.121Z,16.87
2016-12-05T08:02:25.058Z,16.9
2016-12-05T08:03:25.081Z,16.95
2016-12-05T08:04:25.018Z,16.95
2016-12-05T08:05:24.955Z,16.99
2016-12-05T08:06:24.978Z,16.88
2016-12-05T08:07:25.003Z,16.92
2016-12-05T08:08:24.939Z,16.91
2016-12-05T08:09:24.964Z,16.9
2016-12-05T08:10:24.898Z,16.92
2016-12-05T08:11:24.923Z,16.88
2016-12-05T08:12:24.854Z,16.95
2016-12-05T08:13:24.880Z,16.91
2016-12-05T08:14:24.818Z,16.91
2016-12-05T08:15:24.844Z,16.84
2016-12-05T08:16:24.869Z,16.87
2016-12-05T08:17:24.895Z,16.87
2016-12-05T08:18:24.736Z,16.9
2016-12-05T08:19:24.576Z,16.92
2016-12-05T08:20:24.419Z,16.88
2016-12-05T08:21:24.356Z,16.87
2016-12-05T08:22:24.199Z,16.8
2016-12-05T08:23:24.226Z,16.9
2016-12-05T08:24:24.158Z,16.76
2016-12-05T08:25:24.096Z,16.92
2016-12-05T08:26:24.119Z,16.92
2016-12-05T08:27:24.057Z,16.9
2016-12-05T08:28:24.081Z,16.9
2016-12-05T08:29:24.017Z,16.94
2016-12-05T08:30:23.946Z,16.98
2016-12-05T08:31:23.973Z,16.82
2016-12-05T08:32:23.912Z,16.95
2016-12-05T08:33:23.850Z,16.95
2016-12-05T08:34:23.875Z,16.92
2016-12-05T08:35:23.813Z,16.87
2016-12-05T08:36:23.844Z,16.88
2016-12-05T08:37:23.866Z,16.88
2016-12-05T08:38:23.894Z,16.98
2016-12-05T08:39:23.921Z,16.95
2016-12-05T08:40:23.855Z,17.06
2016-12-05T08:41:23.789Z,17.07
2016-12-05T08:42:23.814Z,17.12
2016-12-05T08:43:23.750Z,17.16
2016-12-05T08:44:23.775Z,17.12
2016-12-05T08:45:23.620Z,17.13
2016-12-05T08:46:23.554Z,17.1
2016-12-05T08:47:23.579Z,17.13
2016-12-05T08:48:23.607Z,17.14
2016-12-05T08:49:23.541Z,17.1
2016-12-05T08:50:23.568Z,17.13
2016-12-05T08:51:23.502Z,17.13
2016-12-05T08:52:23.433Z,17.13
2016-12-05T08:53:23.373Z,17.13
2016-12-05T08:54:23.306Z,17.09
2016-12-05T08:55:23.244Z,17.14
2016-12-05T08:56:23.271Z,17.1
2016-12-05T08:57:23.205Z,17.06
2016-12-05T08:58:23.141Z,17.1
2016-12-05T08:59:23.074Z,17.16
2016-12-05T09:00:23.013Z,17.12
2016-12-05T09:01:22.945Z,17.13
2016-12-05T09:02:22.878Z,17.17
2016-12-05T09:03:22.817Z,17.22
2016-12-05T09:04:22.748Z,17.25
2016-12-05T09:05:22.774Z,17.25
2016-12-05T09:06:22.614Z,17.32
2016-12-05T09:07:22.552Z,17.38
2016-12-05T09:08:22.580Z,17.37
2016-12-05T09:09:22.605Z,17.45
2016-12-05T09:10:22.635Z,17.43
2016-12-05T09:11:22.568Z,17.38
2016-12-05T09:12:22.411Z,17.41
2016-12-05T09:13:22.342Z,17.34
2016-12-05T09:14:22.278Z,17.37
2016-12-05T09:15:22.214Z,17.39
2016-12-05T09:16:22.240Z,17.41
2016-12-05T09:17:22.180Z,17.47
2016-12-05T09:18:22.205Z,17.35
2016-12-05T09:19:22.046Z,17.57
2016-12-05T09:20:21.982Z,17.81
2016-12-05T09:21:22.012Z,17.72
2016-12-05T09:22:22.037Z,17.81
2016-12-05T09:23:21.971Z,17.66
2016-12-05T09:24:21.909Z,17.84
2016-12-05T09:25:21.843Z,17.99
2016-12-05T09:26:21.781Z,18.01
2016-12-05T09:27:21.716Z,17.97
2016-12-05T09:28:21.745Z,18.06
2016-12-05T09:29:21.679Z,17.99
2016-12-05T09:30:21.621Z,18.18
2016-12-05T09:31:21.555Z,18.46
2016-12-05T09:32:21.587Z,18.66
2016-12-05T09:33:21.615Z,18.7
2016-12-05T09:34:21.460Z,18.83
2016-12-05T09:35:21.490Z,18.86
2016-12-05T09:36:21.423Z,19
2016-12-05T09:37:21.361Z,18.89
2016-12-05T09:38:21.394Z,18.85
2016-12-05T09:39:21.238Z,18.67
2016-12-05T09:40:21.174Z,18.74
2016-12-05T09:41:21.111Z,18.6
2016-12-05T09:42:21.047Z,18.43
2016-12-05T09:43:21.079Z,18.42
2016-12-05T09:44:20.922Z,18.49
2016-12-05T09:45:20.769Z,18.46
2016-12-05T09:46:20.709Z,18.49
2016-12-05T09:47:20.739Z,18.52
2016-12-05T09:48:20.769Z,18.6
2016-12-05T09:49:20.705Z,18.63
2016-12-05T09:50:20.643Z,18.56
2016-12-05T09:51:20.673Z,18.61
2016-12-05T09:52:20.705Z,18.58
2016-12-05T09:53:20.733Z,18.54
2016-12-05T09:54:20.671Z,18.57
2016-12-05T09:55:20.607Z,18.56
2016-12-05T09:56:20.372Z,18.6
2016-12-05T09:57:20.308Z,18.61
2016-12-05T09:58:20.338Z,18.6
2016-12-05T09:59:20.274Z,18.51
2016-12-05T10:00:20.213Z,18.41
2016-12-05T10:01:20.158Z,18.43
2016-12-05T10:02:20.187Z,18.51
2016-12-05T10:03:20.124Z,18.52
2016-12-05T10:04:19.971Z,18.6
2016-12-05T10:05:19.907Z,18.54
2016-12-05T10:06:19.843Z,18.6
2016-12-05T10:07:19.781Z,18.6
2016-12-05T10:08:19.628Z,18.66
2016-12-05T10:09:19.656Z,18.63
2016-12-05T10:10:19.500Z,18.7
2016-12-05T10:11:19.439Z,18.7
2016-12-05T10:12:19.375Z,18.74
2016-12-05T10:13:19.405Z,18.64
2016-12-05T10:14:19.432Z,18.7
2016-12-05T10:15:19.462Z,18.63
2016-12-05T10:16:19.492Z,18.71
2016-12-05T10:17:19.426Z,18.63
2016-12-05T10:18:19.451Z,18.61
2016-12-05T10:19:19.209Z,18.64
2016-12-05T10:20:19.239Z,18.68
2016-12-05T10:21:19.266Z,18.79
2016-12-05T10:22:19.206Z,18.82
2016-12-05T10:23:19.232Z,18.91
2016-12-05T10:24:19.170Z,18.96
2016-12-05T10:25:19.199Z,19.15
2016-12-05T10:26:19.231Z,19.07
2016-12-05T10:27:19.258Z,19.22
2016-12-05T10:28:19.198Z,19.26
2016-12-05T10:29:19.228Z,19.39
2016-12-05T10:30:19.259Z,19.57
2016-12-05T10:31:19.103Z,19.72
2016-12-05T10:32:19.039Z,19.86
2016-12-05T10:33:18.982Z,19.78
2016-12-05T10:34:19.014Z,19.93
2016-12-05T10:35:19.046Z,20
2016-12-05T10:36:19.078Z,20.22
2016-12-05T10:37:19.019Z,20.48
2016-12-05T10:38:18.960Z,20.82
2016-12-05T10:39:18.989Z,21.18
2016-12-05T10:40:18.928Z,21.29
2016-12-05T10:41:18.960Z,21.53
2016-12-05T10:42:18.992Z,21.55
2016-12-05T10:43:19.026Z,21.34
2016-12-05T10:44:19.058Z,21.28
2016-12-05T10:45:18.905Z,21.16
2016-12-05T10:46:18.752Z,21.37
2016-12-05T10:47:18.789Z,21.62
2016-12-05T10:48:18.729Z,21.77
2016-12-05T10:49:18.586Z,22.01
2016-12-05T10:50:18.615Z,22.19
2016-12-05T10:51:18.646Z,22.22
2016-12-05T10:52:18.612Z,22.07
2016-12-05T10:53:18.461Z,22.01
2016-12-05T10:54:18.403Z,22.12
2016-12-05T10:55:18.435Z,22.27
2016-12-05T10:56:18.385Z,22.52
2016-12-05T10:57:18.332Z,22.73
2016-12-05T10:58:18.369Z,22.81
2016-12-05T10:59:18.310Z,22.98
2016-12-05T11:00:18.346Z,23.06
2016-12-05T11:01:18.381Z,23.33
2016-12-05T11:02:18.318Z,23.08
2016-12-05T11:03:18.265Z,23.1
2016-12-05T11:04:18.212Z,23.17
2016-12-05T11:05:18.158Z,23.37
2016-12-05T11:06:18.102Z,23.49
2016-12-05T11:07:18.050Z,23.63
2016-12-05T11:08:17.900Z,23.79
2016-12-05T11:09:17.751Z,23.82
2016-12-05T11:10:17.692Z,23.79
2016-12-05T11:11:17.637Z,23.97
2016-12-05T11:12:17.591Z,24.03
2016-12-05T11:13:17.532Z,24.08
2016-12-05T11:14:17.569Z,24.29
2016-12-05T11:15:17.604Z,24.36
2016-12-05T11:16:17.552Z,24.28
2016-12-05T11:17:17.581Z,24.33
2016-12-05T11:18:17.526Z,24.36
2016-12-05T11:19:17.471Z,24.45
2016-12-05T11:20:17.407Z,24.7
2016-12-05T11:21:17.363Z,24.78
2016-12-05T11:22:17.306Z,24.65
2016-12-05T11:23:17.252Z,24.74
2016-12-05T11:24:17.199Z,24.43
2016-12-05T11:25:16.948Z,24.21
2016-12-05T11:26:16.893Z,24.03
2016-12-05T11:27:16.927Z,24
2016-12-05T11:28:16.779Z,24.22
2016-12-05T11:29:16.717Z,24.43
2016-12-05T11:30:16.663Z,24.66
2016-12-05T11:31:16.606Z,24.78
2016-12-05T11:32:16.640Z,25
2016-12-05T11:33:16.677Z,25.09
2016-12-05T11:34:16.714Z,25.26
2016-12-05T11:35:16.565Z,25.15
2016-12-05T11:36:16.601Z,25.16
2016-12-05T11:37:16.636Z,25.28
2016-12-05T11:38:16.670Z,25.36
2016-12-05T11:39:16.619Z,25.48
2016-12-05T11:40:16.653Z,25.68
2016-12-05T11:41:16.692Z,25.81
2016-12-05T11:42:16.728Z,26.07
2016-12-05T11:43:16.676Z,26.19
2016-12-05T11:44:16.532Z,26.26
2016-12-05T11:45:16.479Z,26.3
2016-12-05T11:46:16.520Z,26.27
2016-12-05T11:47:16.464Z,26.01
2016-12-05T11:48:16.409Z,25.83
2016-12-05T11:49:16.449Z,25.85
2016-12-05T11:50:16.491Z,26.04
2016-12-05T11:51:16.439Z,26.11
2016-12-05T11:52:16.476Z,25.9
2016-12-05T11:53:16.515Z,25.88
2016-12-05T11:54:16.460Z,26.01
2016-12-05T11:55:16.341Z,26.04
2016-12-05T11:56:16.379Z,26.03
2016-12-05T11:57:16.229Z,25.98
2016-12-05T11:58:16.266Z,26.03
2016-12-05T11:59:16.303Z,26.1
2016-12-05T12:00:16.160Z,26.26
2016-12-05T12:01:16.198Z,26.31
2016-12-05T12:02:16.237Z,26.15
2016-12-05T12:03:16.182Z,25.86
2016-12-05T12:04:16.219Z,25.92
2016-12-05T12:05:16.167Z,25.98
2016-12-05T12:06:16.202Z,26.03
2016-12-05T12:07:16.242Z,26.21
2016-12-05T12:08:16.279Z,26.33
2016-12-05T12:09:16.225Z,26.58
2016-12-05T12:10:16.170Z,26.65
2016-12-05T12:11:16.118Z,26.68
2016-12-05T12:12:16.063Z,26.52
2016-12-05T12:13:16.007Z,26.63
2016-12-05T12:14:15.952Z,26.45
2016-12-05T12:15:15.806Z,26.31
2016-12-05T12:16:15.661Z,26.04
2016-12-05T12:17:15.607Z,26.15
2016-12-05T12:18:15.644Z,26.12
2016-12-05T12:19:15.590Z,26.21
2016-12-05T12:20:15.630Z,26.43
2016-12-05T12:21:15.573Z,26.6
2016-12-05T12:22:15.610Z,26.8
2016-12-05T12:23:15.567Z,26.86
2016-12-05T12:24:15.514Z,26.9
2016-12-05T12:25:15.553Z,26.95
2016-12-05T12:26:15.403Z,26.89
2016-12-05T12:27:15.345Z,26.83
2016-12-05T12:28:15.290Z,26.82
2016-12-05T12:29:15.234Z,26.64
2016-12-05T12:30:15.182Z,26.56
2016-12-05T12:31:15.126Z,26.42
2016-12-05T12:32:15.167Z,26.65
2016-12-05T12:33:15.111Z,26.73
2016-12-05T12:34:14.864Z,26.82
2016-12-05T12:35:14.809Z,26.97
2016-12-05T12:36:14.754Z,26.97
2016-12-05T12:37:14.792Z,26.82
2016-12-05T12:38:14.737Z,26.98
2016-12-05T12:39:14.681Z,27.08
2016-12-05T12:40:14.537Z,27.15
2016-12-05T12:41:14.575Z,27.2
2016-12-05T12:42:14.520Z,27.32
2016-12-05T12:43:14.559Z,27.45
2016-12-05T12:44:14.504Z,27.42
2016-12-05T12:45:14.547Z,27.31
2016-12-05T12:46:14.400Z,27.19
2016-12-05T12:47:14.444Z,27.3
2016-12-05T12:48:14.484Z,27.4
2016-12-05T12:49:14.524Z,27.34
2016-12-05T12:50:14.466Z,27.35
2016-12-05T12:51:14.320Z,27.19
2016-12-05T12:52:14.356Z,27.03
2016-12-05T12:53:14.299Z,27.05
2016-12-05T12:54:14.155Z,27.01
2016-12-05T12:55:14.005Z,27.1